createdAt,value
2022-11-24T00:01:11.364Z,98670.66
2022-11-24T00:03:38.125Z,98675.91
2022-11-24T00:06:07.782Z,98675.00
2022-11-24T00:08:35.795Z,98659.19
2022-11-24T00:11:04.081Z,98676.09
2022-11-24T00:13:30.797Z,98663.72
2022-11-24T00:16:05.484Z,98678.25
2022-11-24T00:18:32.212Z,98677.00
2022-11-24T00:20:58.835Z,98678.28
2022-11-24T00:23:25.487Z,98668.94
2022-11-24T00:25:52.148Z,98672.88
2022-11-24T00:28:18.787Z,98674.72
2022-11-24T00:30:45.473Z,98666.75
2022-11-24T00:33:12.241Z,98673.78
2022-11-24T00:35:38.836Z,98657.97
2022-11-24T00:38:05.456Z,98670.34
2022-11-24T00:40:34.945Z,98679.34
2022-11-24T00:43:01.934Z,98674.06
2022-11-24T00:45:28.588Z,98673.94
2022-11-24T00:47:55.244Z,98670.13
2022-11-24T00:50:22.524Z,98675.53
2022-11-24T00:52:49.177Z,98617.38
2022-11-24T00:55:15.902Z,98671.38
2022-11-24T00:57:42.581Z,98663.75
2022-11-24T01:00:09.572Z,98660.19
2022-11-24T01:02:36.279Z,98683.19
2022-11-24T01:05:03.401Z,98682.94
2022-11-24T01:07:31.466Z,98676.91
2022-11-24T01:09:58.141Z,98666.31
2022-11-24T01:12:24.792Z,98679.38
2022-11-24T01:14:51.433Z,98677.63
2022-11-24T01:17:18.076Z,98684.91
2022-11-24T01:19:47.198Z,98675.22
2022-11-24T01:22:13.943Z,98673.69
2022-11-24T01:24:40.801Z,98684.69
2022-11-24T01:27:07.840Z,98678.31
2022-11-24T01:29:34.647Z,98684.44
2022-11-24T01:32:01.388Z,98683.38
2022-11-24T01:34:28.284Z,98679.22
2022-11-24T01:36:54.947Z,98662.97
2022-11-24T01:39:21.612Z,98625.34
2022-11-24T01:41:48.287Z,98627.09
2022-11-24T01:44:27.428Z,98647.94
2022-11-24T01:46:59.226Z,98657.78
2022-11-24T01:49:36.606Z,98657.19
2022-11-24T01:52:28.594Z,98642.81
2022-11-24T01:54:59.036Z,98655.31
2022-11-24T01:57:34.297Z,98646.44
2022-11-24T02:00:10.632Z,98640.16
2022-11-24T02:02:37.438Z,98649.63
2022-11-24T02:05:11.424Z,98643.84
2022-11-24T02:07:38.310Z,98634.72
2022-11-24T02:10:10.920Z,98640.81
2022-11-24T02:12:41.250Z,98650.19
2022-11-24T02:15:08.971Z,98644.88
2022-11-24T02:17:35.728Z,98646.97
2022-11-24T02:20:06.877Z,98648.59
2022-11-24T02:22:58.495Z,98650.56
2022-11-24T02:25:40.016Z,98647.78
2022-11-24T02:28:10.914Z,98641.91
2022-11-24T02:30:37.773Z,98647.69
2022-11-24T02:33:04.481Z,98646.59
2022-11-24T02:35:31.936Z,98625.13
2022-11-24T02:37:58.600Z,98625.00
2022-11-24T02:40:28.484Z,98634.59
2022-11-24T02:43:04.771Z,98636.13
2022-11-24T02:45:32.002Z,98637.97
2022-11-24T02:47:58.729Z,98643.97
2022-11-24T02:50:25.424Z,98634.34
2022-11-24T02:52:52.117Z,98645.44
2022-11-24T02:55:18.769Z,98642.19
2022-11-24T02:57:45.394Z,98649.16
2022-11-24T03:00:12.564Z,98651.22
2022-11-24T03:02:40.583Z,98640.56
2022-11-24T03:05:07.879Z,98648.44
2022-11-24T03:07:34.732Z,98663.03
2022-11-24T03:10:01.463Z,98658.22
2022-11-24T03:12:28.092Z,98645.31
2022-11-24T03:14:54.803Z,98647.56
2022-11-24T03:17:21.480Z,98654.47
2022-11-24T03:19:48.085Z,98646.53
2022-11-24T03:22:14.888Z,98659.63
2022-11-24T03:24:41.567Z,98653.88
2022-11-24T03:27:08.211Z,98653.84
2022-11-24T03:29:34.959Z,98663.13
2022-11-24T03:32:01.895Z,98665.47
2022-11-24T03:34:28.538Z,98666.25
2022-11-24T03:36:55.237Z,98673.28
2022-11-24T03:39:21.838Z,98664.38
2022-11-24T03:41:51.401Z,98669.22
2022-11-24T03:44:18.319Z,98677.31
2022-11-24T03:46:45.309Z,98674.47
2022-11-24T03:49:12.032Z,98671.72
2022-11-24T03:51:38.750Z,98676.34
2022-11-24T03:54:05.425Z,98683.53
2022-11-24T03:56:32.053Z,98665.81
2022-11-24T03:58:58.700Z,98626.56
2022-11-24T04:01:25.374Z,98671.13
2022-11-24T04:03:52.033Z,98677.13
2022-11-24T04:06:18.704Z,98682.84
2022-11-24T04:08:45.357Z,98679.00
2022-11-24T04:11:31.976Z,98678.13
2022-11-24T04:13:58.658Z,98683.41
2022-11-24T04:16:25.315Z,98696.69
2022-11-24T04:18:53.471Z,98690.22
2022-11-24T04:21:20.464Z,98684.72
2022-11-24T04:23:47.475Z,98685.94
2022-11-24T04:26:14.885Z,98685.81
2022-11-24T04:28:41.516Z,98698.25
2022-11-24T04:31:08.188Z,98690.06
2022-11-24T04:33:34.902Z,98658.19
2022-11-24T04:36:01.586Z,98649.66
2022-11-24T04:39:24.690Z,98697.59
2022-11-24T04:41:14.880Z,98704.88
2022-11-24T04:43:41.514Z,98700.63
2022-11-24T04:46:11.445Z,98700.66
2022-11-24T04:48:38.196Z,98715.59
2022-11-24T04:51:05.917Z,98713.03
2022-11-24T04:53:32.578Z,98714.47
2022-11-24T04:55:59.360Z,98712.44
2022-11-24T04:58:25.984Z,98713.69
2022-11-24T05:00:52.589Z,98717.13
2022-11-24T05:03:19.287Z,98716.59
2022-11-24T05:05:45.896Z,98727.19
2022-11-24T05:08:12.625Z,98730.72
2022-11-24T05:10:40.214Z,98725.81
2022-11-24T05:13:10.687Z,98735.09
2022-11-24T05:15:39.239Z,98731.84
2022-11-24T05:18:07.647Z,98729.13
2022-11-24T05:20:35.024Z,98745.16
2022-11-24T05:23:04.026Z,98745.84
2022-11-24T05:25:31.101Z,98747.84
2022-11-24T05:28:01.940Z,98742.06
2022-11-24T05:30:29.409Z,98748.44
2022-11-24T05:32:56.214Z,98746.03
2022-11-24T05:35:23.537Z,98749.63
2022-11-24T05:37:50.296Z,98756.63
2022-11-24T05:40:17.275Z,98767.69
2022-11-24T05:42:47.651Z,98781.41
2022-11-24T05:45:20.975Z,98772.59
2022-11-24T05:47:48.923Z,98773.44
2022-11-24T05:50:18.703Z,98766.81
2022-11-24T05:52:45.870Z,98770.78
2022-11-24T05:55:12.692Z,98759.06
2022-11-24T05:57:39.436Z,98770.94
2022-11-24T06:00:10.201Z,98791.38
2022-11-24T06:02:36.951Z,98784.44
2022-11-24T06:05:03.927Z,98776.03
2022-11-24T06:07:30.699Z,98798.50
2022-11-24T06:09:57.428Z,98808.06
2022-11-24T06:12:24.052Z,98797.59
2022-11-24T06:14:50.743Z,98810.28
2022-11-24T06:17:17.392Z,98800.94
2022-11-24T06:19:47.903Z,98802.22
2022-11-24T06:22:14.603Z,98814.16
2022-11-24T06:24:41.269Z,98795.44
2022-11-24T06:27:07.949Z,98819.09
2022-11-24T06:29:34.592Z,98806.41
2022-11-24T06:32:01.253Z,98810.91
2022-11-24T06:34:27.940Z,98819.75
2022-11-24T06:36:54.608Z,98817.28
2022-11-24T06:39:21.300Z,98816.41
2022-11-24T06:41:50.589Z,98804.16
2022-11-24T06:44:17.275Z,98822.47
2022-11-24T06:46:44.035Z,98816.13
2022-11-24T06:49:10.771Z,98804.97
2022-11-24T06:51:37.658Z,98813.84
2022-11-24T06:54:07.908Z,98776.44
2022-11-24T06:56:34.849Z,98805.13
2022-11-24T06:59:02.423Z,98794.44
2022-11-24T07:01:30.088Z,98798.84
2022-11-24T07:03:57.317Z,98807.69
2022-11-24T07:06:25.615Z,98809.94
2022-11-24T07:08:52.824Z,98804.56
2022-11-24T07:11:22.914Z,98806.16
2022-11-24T07:13:56.505Z,98807.53
2022-11-24T07:16:27.244Z,98806.94
2022-11-24T07:18:54.902Z,98801.78
2022-11-24T07:21:22.940Z,98795.19
2022-11-24T07:23:51.199Z,98790.50
2022-11-24T07:26:18.496Z,98786.28
2022-11-24T07:28:45.649Z,98786.16
2022-11-24T07:31:15.332Z,98804.41
2022-11-24T07:33:42.080Z,98796.66
2022-11-24T07:36:09.481Z,98797.22
2022-11-24T07:38:36.493Z,98810.09
2022-11-24T07:41:05.949Z,98818.06
2022-11-24T07:43:34.176Z,98818.06
2022-11-24T07:46:01.139Z,98820.97
2022-11-24T07:48:28.014Z,98814.81
2022-11-24T07:50:56.214Z,98818.66
2022-11-24T07:53:23.071Z,98825.06
2022-11-24T07:56:00.523Z,98819.78
2022-11-24T07:58:32.590Z,98823.53
2022-11-24T08:01:00.336Z,98819.75
2022-11-24T08:03:27.413Z,98829.53
2022-11-24T08:08:45.519Z,98824.50
2022-11-24T08:11:16.103Z,98816.97
2022-11-24T08:13:43.090Z,98780.88
2022-11-24T08:16:15.363Z,98818.53
2022-11-24T08:18:42.789Z,98809.00
2022-11-24T08:21:14.345Z,98802.16
2022-11-24T08:23:41.604Z,98804.25
2022-11-24T08:26:13.713Z,98808.28
2022-11-24T08:28:40.396Z,98809.50
2022-11-24T08:31:10.379Z,98813.75
2022-11-24T08:33:37.639Z,98821.41
2022-11-24T08:36:09.887Z,98820.47
2022-11-24T08:38:37.030Z,98814.94
2022-11-24T08:41:06.624Z,98820.47
2022-11-24T08:43:33.704Z,98818.97
2022-11-24T08:46:06.483Z,98821.94
2022-11-24T08:48:34.418Z,98813.09
2022-11-24T08:51:13.429Z,98817.34
2022-11-24T08:53:41.036Z,98815.84
2022-11-24T08:56:09.005Z,98819.28
2022-11-24T08:58:36.281Z,98821.84
2022-11-24T09:01:09.154Z,98831.66
2022-11-24T09:03:36.209Z,98838.63
2022-11-24T09:06:03.864Z,98826.91
2022-11-24T09:08:31.567Z,98814.84
2022-11-24T09:11:03.405Z,98818.41
2022-11-24T09:13:30.272Z,98827.63
2022-11-24T09:16:02.021Z,98826.13
2022-11-24T09:18:30.448Z,98839.66
2022-11-24T09:21:07.438Z,98846.78
2022-11-24T09:23:34.774Z,98845.97
2022-11-24T09:26:09.829Z,98848.41
2022-11-24T09:28:36.562Z,98800.72
2022-11-24T09:31:09.369Z,98852.13
2022-11-24T09:33:37.196Z,98847.22
2022-11-24T09:36:05.033Z,98850.84
2022-11-24T09:38:32.069Z,98846.28
2022-11-24T09:41:17.630Z,98850.66
2022-11-24T09:44:06.448Z,98852.06
2022-11-24T09:46:41.992Z,98851.88
2022-11-24T09:49:15.788Z,98854.22
2022-11-24T09:51:46.901Z,98844.69
2022-11-24T09:54:19.642Z,98860.50
2022-11-24T09:56:47.759Z,98864.44
2022-11-24T09:59:21.458Z,98870.50
2022-11-24T10:01:50.187Z,98883.34
2022-11-24T10:04:22.950Z,98892.34
2022-11-24T10:06:58.458Z,98887.69
2022-11-24T10:09:56.716Z,98884.75
2022-11-24T10:12:39.003Z,98883.13
2022-11-24T10:15:43.896Z,98873.91
2022-11-24T10:18:58.608Z,98875.16
2022-11-24T10:22:14.547Z,98871.31
2022-11-24T10:25:01.266Z,98873.22
2022-11-24T10:27:37.657Z,98863.53
2022-11-24T10:30:13.583Z,98870.91
2022-11-24T10:33:04.911Z,98856.19
2022-11-24T10:35:40.706Z,98875.03
2022-11-24T10:38:14.152Z,98869.34
2022-11-24T10:40:57.122Z,98871.22
2022-11-24T10:43:28.819Z,98881.25
2022-11-24T10:46:10.667Z,98866.78
2022-11-24T10:49:02.384Z,98882.94
2022-11-24T10:51:55.293Z,98867.03
2022-11-24T10:54:23.994Z,98884.00
2022-11-24T10:56:53.120Z,98881.34
2022-11-24T10:59:25.532Z,98909.44
2022-11-24T11:01:53.579Z,98907.81
2022-11-24T11:04:40.559Z,98897.69
2022-11-24T11:07:18.669Z,98902.97
2022-11-24T11:09:46.884Z,98900.72
2022-11-24T11:12:42.681Z,98900.91
2022-11-24T11:15:30.426Z,98897.66
2022-11-24T11:18:01.182Z,98867.00
2022-11-24T11:20:31.692Z,98901.16
2022-11-24T11:23:02.743Z,98887.25
2022-11-24T11:25:34.343Z,98898.78
2022-11-24T11:28:26.114Z,98889.31
2022-11-24T11:31:17.531Z,98902.19
2022-11-24T11:34:21.821Z,98887.38
2022-11-24T11:36:52.844Z,98888.69
2022-11-24T11:39:32.945Z,98888.88
2022-11-24T11:42:53.540Z,98893.78
2022-11-24T11:45:28.815Z,98899.22
2022-11-24T11:48:16.774Z,98895.94
2022-11-24T11:51:21.643Z,98895.28
2022-11-24T11:54:03.923Z,98899.97
2022-11-24T11:56:40.491Z,98890.59
2022-11-24T11:59:34.822Z,98896.38
2022-11-24T12:02:19.294Z,98901.81
2022-11-24T12:05:01.980Z,98894.09
2022-11-24T12:07:50.358Z,98893.09
2022-11-24T12:10:44.094Z,98892.41
2022-11-24T12:13:36.916Z,98898.16
2022-11-24T12:16:29.803Z,98886.31
2022-11-24T12:18:58.334Z,98894.59
2022-11-24T12:21:51.291Z,98888.84
2022-11-24T12:24:40.510Z,98893.72
2022-11-24T12:27:10.115Z,98898.16
2022-11-24T12:29:50.495Z,98901.97
2022-11-24T12:32:40.972Z,98904.53
2022-11-24T12:35:44.639Z,98911.41
2022-11-24T12:38:23.567Z,98896.31
2022-11-24T12:41:39.613Z,98914.84
2022-11-24T12:43:58.439Z,98903.84
2022-11-24T12:46:59.448Z,98901.72
2022-11-24T12:49:28.772Z,98908.59
2022-11-24T12:52:03.005Z,98911.22
2022-11-24T12:54:38.594Z,98902.59
2022-11-24T12:57:24.500Z,98904.81
2022-11-24T13:00:00.445Z,98906.72
2022-11-24T13:02:27.148Z,98904.88
2022-11-24T13:05:20.137Z,98893.16
2022-11-24T13:07:56.117Z,98888.13
2022-11-24T13:10:46.957Z,98904.81
2022-11-24T13:13:14.443Z,98846.72
2022-11-24T13:16:07.113Z,98904.56
2022-11-24T13:18:53.493Z,98901.72
2022-11-24T13:21:51.136Z,98910.06
2022-11-24T13:24:19.040Z,98915.00
2022-11-24T13:26:49.380Z,98904.47
2022-11-24T13:29:28.188Z,98916.44
2022-11-24T13:32:15.632Z,98924.16
2022-11-24T13:34:55.181Z,98927.13
2022-11-24T13:37:35.464Z,98929.91
2022-11-24T13:40:31.426Z,98934.50
2022-11-24T13:42:58.162Z,98926.97
2022-11-24T13:45:40.812Z,98927.94
2022-11-24T13:48:20.212Z,98937.44
2022-11-24T13:50:50.436Z,98933.59
2022-11-24T13:53:35.208Z,98938.59
2022-11-24T13:56:14.313Z,98940.50
2022-11-24T13:58:46.502Z,98913.59
2022-11-24T14:01:25.597Z,98932.75
2022-11-24T14:07:01.120Z,98936.09
2022-11-24T14:09:51.854Z,98935.81
2022-11-24T14:12:21.426Z,98932.09
2022-11-24T14:14:55.690Z,98946.53
2022-11-24T14:17:24.327Z,98962.59
2022-11-24T14:19:53.645Z,98949.38
2022-11-24T14:22:40.138Z,98958.03
2022-11-24T14:25:30.098Z,98953.06
2022-11-24T14:27:57.614Z,98961.19
2022-11-24T14:30:25.519Z,98963.50
2022-11-24T14:32:58.815Z,98957.81
2022-11-24T14:35:32.446Z,98963.44
2022-11-24T14:38:01.949Z,98963.41
2022-11-24T14:40:44.050Z,98965.38
2022-11-24T14:43:26.146Z,98973.00
2022-11-24T14:45:57.703Z,98977.97
2022-11-24T14:48:49.315Z,98981.78
2022-11-24T14:51:29.349Z,98984.59
2022-11-24T14:54:00.016Z,98985.16
2022-11-24T14:56:29.816Z,98981.84
2022-11-24T14:58:58.038Z,98978.94
2022-11-24T15:01:27.900Z,98987.28
2022-11-24T15:04:26.599Z,98998.50
2022-11-24T15:07:02.645Z,99002.13
2022-11-24T15:09:35.507Z,99004.41
2022-11-24T15:12:08.819Z,98995.28
2022-11-24T15:14:50.332Z,99007.09
2022-11-24T15:17:19.901Z,99017.53
2022-11-24T15:19:50.074Z,99000.72
2022-11-24T15:22:34.870Z,99024.94
2022-11-24T15:25:02.052Z,99015.22
2022-11-24T15:27:28.866Z,99015.56
2022-11-24T15:29:55.655Z,99031.78
2022-11-24T15:32:22.374Z,99033.72
2022-11-24T15:34:49.059Z,99031.06
2022-11-24T15:37:15.831Z,99020.75
2022-11-24T15:39:42.495Z,99034.34
2022-11-24T15:42:11.709Z,99039.53
2022-11-24T15:44:38.404Z,99034.19
2022-11-24T15:47:05.178Z,99019.66
2022-11-24T15:49:31.974Z,99017.47
2022-11-24T15:51:58.710Z,99031.47
2022-11-24T15:54:26.597Z,99036.13
2022-11-24T15:56:53.525Z,99034.41
2022-11-24T15:59:21.152Z,99033.91
2022-11-24T16:01:50.151Z,98939.28
2022-11-24T16:04:17.055Z,99030.56
2022-11-24T16:06:44.138Z,99044.91
2022-11-24T16:09:15.036Z,99036.41
2022-11-24T16:11:41.753Z,99044.19
2022-11-24T16:14:08.598Z,99042.19
2022-11-24T16:16:35.360Z,99040.41
2022-11-24T16:19:02.034Z,99051.09
2022-11-24T16:21:28.745Z,99046.94
2022-11-24T16:23:55.362Z,99037.25
2022-11-24T16:26:22.194Z,99047.69
2022-11-24T16:28:49.045Z,99058.19
2022-11-24T16:31:16.457Z,99005.16
2022-11-24T16:33:44.825Z,99051.91
2022-11-24T16:36:12.181Z,99060.44
2022-11-24T16:38:38.898Z,99050.25
2022-11-24T16:41:05.544Z,99068.69
2022-11-24T16:43:32.407Z,99061.00
2022-11-24T16:46:15.876Z,99071.41
2022-11-24T16:48:42.854Z,99069.75
2022-11-24T16:51:12.969Z,99067.22
2022-11-24T16:53:40.205Z,99068.06
2022-11-24T16:56:07.781Z,99079.38
2022-11-24T16:58:37.791Z,99053.19
2022-11-24T17:01:06.598Z,99084.50
2022-11-24T17:03:37.232Z,99071.25
2022-11-24T17:06:09.020Z,99090.34
2022-11-24T17:08:38.028Z,99083.25
2022-11-24T17:11:06.740Z,99097.19
2022-11-24T17:13:34.301Z,99094.41
2022-11-24T17:16:14.998Z,99094.94
2022-11-24T17:18:42.444Z,99103.31
2022-11-24T17:21:15.468Z,99106.03
2022-11-24T17:23:42.839Z,99106.47
2022-11-24T17:26:14.860Z,99120.94
2022-11-24T17:28:42.221Z,99114.03
2022-11-24T17:31:17.901Z,99121.81
2022-11-24T17:33:44.875Z,99106.13
2022-11-24T17:36:11.665Z,99112.59
2022-11-24T17:38:38.339Z,99107.88
2022-11-24T17:41:05.356Z,99113.13
2022-11-24T17:43:32.914Z,99121.09
2022-11-24T17:46:02.208Z,99115.69
2022-11-24T17:48:30.571Z,99106.28
2022-11-24T17:51:22.821Z,99128.41
2022-11-24T17:53:52.339Z,99124.78
2022-11-24T17:56:24.241Z,99116.47
2022-11-24T17:58:59.360Z,99116.53
2022-11-24T18:01:28.659Z,99115.50
2022-11-24T18:03:55.644Z,99114.50
2022-11-24T18:06:25.453Z,99120.19
2022-11-24T18:08:54.128Z,99127.78
2022-11-24T18:11:30.540Z,99127.84
2022-11-24T18:14:01.144Z,99116.22
2022-11-24T18:16:30.551Z,99131.41
2022-11-24T18:19:08.430Z,99127.03
2022-11-24T18:21:38.062Z,99133.78
2022-11-24T18:24:05.054Z,99114.84
2022-11-24T18:26:31.673Z,99123.81
2022-11-24T18:28:58.382Z,99109.97
2022-11-24T18:31:26.387Z,99053.81
2022-11-24T18:33:53.232Z,99115.38
2022-11-24T18:36:30.039Z,99132.13
2022-11-24T18:39:07.578Z,99120.91
2022-11-24T18:41:34.863Z,99123.78
2022-11-24T18:44:03.264Z,99121.56
2022-11-24T18:46:30.135Z,99116.69
2022-11-24T18:48:56.844Z,99123.00
2022-11-24T18:51:23.682Z,99131.81
2022-11-24T18:53:54.635Z,99128.97
2022-11-24T18:56:21.560Z,99132.81
2022-11-24T18:58:48.233Z,99134.88
2022-11-24T19:01:16.255Z,99142.22
2022-11-24T19:03:49.413Z,99137.94
2022-11-24T19:06:19.649Z,99131.78
2022-11-24T19:08:46.871Z,99131.78
2022-11-24T19:11:25.389Z,99107.50
2022-11-24T19:13:52.245Z,99129.13
2022-11-24T19:16:20.463Z,99121.16
2022-11-24T19:18:53.577Z,99066.22
2022-11-24T19:21:21.370Z,99144.06
2022-11-24T19:23:48.239Z,99135.31
2022-11-24T19:26:15.477Z,99152.41
2022-11-24T19:28:42.141Z,99154.56
2022-11-24T19:31:12.077Z,99147.81
2022-11-24T19:33:39.491Z,99159.69
2022-11-24T19:36:14.078Z,99148.50
2022-11-24T19:38:41.377Z,99140.75
2022-11-24T19:41:10.463Z,99165.84
2022-11-24T19:43:37.812Z,99163.41
2022-11-24T19:46:07.484Z,99154.84
2022-11-24T19:48:36.579Z,99147.94
2022-11-24T19:51:06.116Z,99161.38
2022-11-24T19:53:34.919Z,99167.88
2022-11-24T19:56:10.220Z,99162.59
2022-11-24T19:58:37.790Z,99165.63
2022-11-24T20:01:15.504Z,99171.13
2022-11-24T20:03:43.957Z,99175.22
2022-11-24T20:06:13.617Z,99158.97
2022-11-24T20:08:42.281Z,99169.16
2022-11-24T20:11:12.646Z,99185.44
2022-11-24T20:13:40.755Z,99181.75
2022-11-24T20:16:10.383Z,99185.66
2022-11-24T20:18:43.968Z,99183.47
2022-11-24T20:21:12.198Z,99192.00
2022-11-24T20:23:39.762Z,99183.41
2022-11-24T20:26:20.071Z,99177.47
2022-11-24T20:28:47.726Z,99182.63
2022-11-24T20:31:20.675Z,99190.34
2022-11-24T20:33:47.743Z,99190.66
2022-11-24T20:36:18.131Z,99186.03
2022-11-24T20:38:45.617Z,99186.66
2022-11-24T20:41:16.514Z,99197.31
2022-11-24T20:43:44.243Z,99174.69
2022-11-24T20:46:20.151Z,99098.69
2022-11-24T20:48:48.291Z,99191.78
2022-11-24T20:51:23.928Z,99200.53
2022-11-24T20:53:52.147Z,99203.53
2022-11-24T20:56:21.349Z,99193.91
2022-11-24T20:58:48.487Z,99188.16
2022-11-24T21:01:23.455Z,99187.91
2022-11-24T21:03:58.668Z,99187.91
2022-11-24T21:06:26.491Z,99183.38
2022-11-24T21:08:53.154Z,99191.31
2022-11-24T21:11:21.371Z,99161.13
2022-11-24T21:13:51.412Z,99183.75
2022-11-24T21:16:20.887Z,99191.94
2022-11-24T21:18:51.011Z,99187.06
2022-11-24T21:21:18.536Z,99183.19
2022-11-24T21:23:45.332Z,99171.53
2022-11-24T21:26:16.882Z,99188.66
2022-11-24T21:28:46.177Z,99166.28
2022-11-24T21:31:18.762Z,99177.94
2022-11-24T21:33:53.219Z,99173.19
2022-11-24T21:36:22.867Z,99168.09
2022-11-24T21:38:59.277Z,99172.31
2022-11-24T21:41:28.620Z,99173.56
2022-11-24T21:43:56.063Z,99187.44
2022-11-24T21:46:23.710Z,99187.63
2022-11-24T21:48:50.959Z,99177.69
2022-11-24T21:51:20.132Z,99196.44
2022-11-24T21:53:47.334Z,99195.66
2022-11-24T21:56:19.335Z,99194.44
2022-11-24T21:58:50.995Z,99199.47
2022-11-24T22:01:19.637Z,99204.81
2022-11-24T22:03:46.647Z,99168.97
2022-11-24T22:06:14.165Z,99216.25
2022-11-24T22:08:40.916Z,99210.94
2022-11-24T22:11:12.621Z,99210.94
2022-11-24T22:13:40.428Z,99221.31
2022-11-24T22:16:19.049Z,99224.44
2022-11-24T22:18:46.502Z,99224.19
2022-11-24T22:21:16.258Z,99220.13
2022-11-24T22:23:43.556Z,99200.53
2022-11-24T22:26:16.192Z,99210.75
2022-11-24T22:28:43.791Z,99200.16
2022-11-24T22:31:13.326Z,99218.91
2022-11-24T22:36:36.731Z,99203.66
2022-11-24T22:39:05.697Z,99221.09
2022-11-24T22:41:34.501Z,99214.56
2022-11-24T22:44:01.245Z,99217.66
2022-11-24T22:46:30.164Z,99222.09
2022-11-24T22:48:59.441Z,99231.13
2022-11-24T22:51:31.524Z,99227.81
2022-11-24T22:54:01.058Z,99219.69
2022-11-24T22:56:28.121Z,99214.34
2022-11-24T22:58:54.799Z,99222.13
2022-11-24T23:01:24.066Z,99213.81
2022-11-24T23:03:53.933Z,99222.19
2022-11-24T23:06:23.478Z,99220.53
2022-11-24T23:08:50.799Z,99212.81
2022-11-24T23:11:23.743Z,99227.91
2022-11-24T23:13:55.810Z,99225.47
2022-11-24T23:16:23.441Z,99220.56
2022-11-24T23:18:53.886Z,99221.59
2022-11-24T23:21:26.630Z,99209.38
2022-11-24T23:23:54.149Z,99197.38
2022-11-24T23:26:27.475Z,99209.78
2022-11-24T23:28:54.683Z,99191.16
2022-11-24T23:31:29.844Z,99223.81
2022-11-24T23:34:02.077Z,99229.53
2022-11-24T23:36:30.151Z,99231.97
2022-11-24T23:39:02.271Z,99228.31
2022-11-24T23:41:31.424Z,99242.41
2022-11-24T23:43:58.251Z,99248.91
2022-11-24T23:46:26.372Z,99252.38
2022-11-24T23:48:54.604Z,99249.53
2022-11-24T23:51:29.524Z,99251.94
2022-11-24T23:53:56.995Z,99253.38
2022-11-24T23:56:34.518Z,99247.06
2022-11-24T23:59:03.046Z,99261.34
